createdAt,value
2019-03-25T00:00:05.451Z,90.20
2019-03-25T00:02:34.197Z,90.20
2019-03-25T00:05:04.719Z,90.20
2019-03-25T00:07:33.528Z,90.10
2019-03-25T00:10:02.407Z,90.00
2019-03-25T00:12:35.350Z,89.90
2019-03-25T00:15:04.847Z,90.20
2019-03-25T00:17:33.554Z,90.00
2019-03-25T00:20:02.403Z,90.00
2019-03-25T00:22:31.376Z,89.80
2019-03-25T00:25:00.358Z,89.50
2019-03-25T00:27:29.375Z,89.30
2019-03-25T00:29:58.128Z,89.20
2019-03-25T00:32:27.914Z,89.30
2019-03-25T00:34:56.784Z,89.40
2019-03-25T00:37:25.314Z,88.50
2019-03-25T00:39:54.085Z,88.30
2019-03-25T00:42:23.045Z,88.40
2019-03-25T00:44:52.117Z,88.20
2019-03-25T00:47:20.997Z,88.30
2019-03-25T00:49:49.871Z,88.80
2019-03-25T00:52:18.932Z,88.80
2019-03-25T00:55:07.017Z,87.80
2019-03-25T00:57:35.888Z,87.50
2019-03-25T01:00:08.901Z,87.40
2019-03-25T01:02:37.682Z,87.70
2019-03-25T01:05:06.823Z,87.80
2019-03-25T01:07:35.494Z,87.70
2019-03-25T01:10:06.576Z,87.70
2019-03-25T01:12:35.036Z,87.60
2019-03-25T01:15:03.767Z,87.50
2019-03-25T01:17:32.363Z,87.10
2019-03-25T01:20:00.858Z,87.00
2019-03-25T01:22:29.433Z,87.30
2019-03-25T01:25:02.001Z,87.60
2019-03-25T01:27:28.017Z,87.90
2019-03-25T01:29:56.552Z,88.50
2019-03-25T01:32:25.018Z,88.90
2019-03-25T01:34:53.535Z,89.00
2019-03-25T01:37:21.967Z,89.10
2019-03-25T01:39:50.546Z,89.10
2019-03-25T01:42:19.046Z,89.10
2019-03-25T01:44:47.547Z,89.20
2019-03-25T01:47:16.240Z,89.20
2019-03-25T01:49:44.653Z,89.30
2019-03-25T01:52:13.129Z,89.70
2019-03-25T01:54:41.854Z,90.00
2019-03-25T01:57:10.485Z,90.10
2019-03-25T01:59:40.531Z,90.20
2019-03-25T02:02:09.153Z,90.10
2019-03-25T02:04:37.638Z,90.20
2019-03-25T02:07:06.155Z,90.20
2019-03-25T02:09:34.735Z,90.30
2019-03-25T02:12:03.218Z,90.30
2019-03-25T02:14:31.729Z,90.30
2019-03-25T02:17:00.259Z,90.30
2019-03-25T02:19:28.747Z,90.10
2019-03-25T02:21:57.277Z,90.10
2019-03-25T02:24:25.786Z,89.90
2019-03-25T02:26:54.180Z,89.90
2019-03-25T02:29:22.714Z,90.00
2019-03-25T02:31:51.197Z,90.00
2019-03-25T02:34:19.675Z,90.00
2019-03-25T02:36:48.275Z,90.00
2019-03-25T02:39:16.846Z,89.80
2019-03-25T02:41:45.315Z,89.60
2019-03-25T02:44:13.765Z,89.70
2019-03-25T02:46:42.211Z,89.80
2019-03-25T02:49:10.646Z,89.80
2019-03-25T02:51:39.339Z,89.80
2019-03-25T02:54:07.840Z,89.70
2019-03-25T02:56:38.073Z,89.60
2019-03-25T02:59:06.574Z,89.30
2019-03-25T03:01:35.020Z,88.90
2019-03-25T03:04:03.593Z,88.60
2019-03-25T03:06:32.172Z,88.30
2019-03-25T03:09:00.721Z,88.20
2019-03-25T03:11:29.265Z,88.20
2019-03-25T03:13:57.827Z,88.60
2019-03-25T03:16:26.368Z,88.10
2019-03-25T03:18:54.898Z,88.10
2019-03-25T03:21:23.402Z,88.50
2019-03-25T03:23:53.132Z,88.70
2019-03-25T03:26:21.831Z,89.30
2019-03-25T03:28:55.255Z,89.70
2019-03-25T03:31:23.757Z,90.00
2019-03-25T03:33:52.606Z,90.20
2019-03-25T03:36:21.100Z,90.10
2019-03-25T03:38:55.417Z,90.00
2019-03-25T03:41:23.951Z,89.80
2019-03-25T03:43:55.146Z,89.60
2019-03-25T03:46:24.048Z,89.50
2019-03-25T03:48:52.478Z,89.30
2019-03-25T03:51:21.231Z,89.00
2019-03-25T03:53:49.758Z,88.70
2019-03-25T03:56:18.278Z,88.00
2019-03-25T03:58:46.821Z,87.80
2019-03-25T04:01:15.282Z,87.30
2019-03-25T04:03:43.904Z,86.90
2019-03-25T04:06:12.483Z,87.00
2019-03-25T04:08:40.909Z,87.10
2019-03-25T04:11:09.355Z,87.00
2019-03-25T04:13:37.855Z,86.90
2019-03-25T04:16:06.436Z,86.70
2019-03-25T04:18:54.318Z,86.60
2019-03-25T04:21:22.798Z,86.50
2019-03-25T04:23:51.219Z,86.60
2019-03-25T04:26:28.599Z,86.50
2019-03-25T04:28:49.806Z,86.20
2019-03-25T04:31:18.290Z,85.80
2019-03-25T04:33:46.779Z,85.50
2019-03-25T04:36:15.267Z,85.20
2019-03-25T04:38:43.763Z,85.50
2019-03-25T04:41:12.234Z,85.00
2019-03-25T04:43:40.663Z,84.80
2019-03-25T04:46:09.103Z,84.50
2019-03-25T04:48:37.547Z,84.30
2019-03-25T04:51:06.453Z,84.20
2019-03-25T04:53:34.890Z,84.00
2019-03-25T04:56:03.322Z,83.40
2019-03-25T04:58:31.818Z,83.20
2019-03-25T05:01:00.400Z,83.30
2019-03-25T05:03:28.820Z,83.60
2019-03-25T05:05:57.243Z,83.80
2019-03-25T05:08:25.707Z,84.30
2019-03-25T05:10:54.149Z,84.40
2019-03-25T05:13:22.762Z,84.60
2019-03-25T05:15:51.305Z,84.40
2019-03-25T05:18:19.824Z,84.30
2019-03-25T05:20:48.270Z,84.40
2019-03-25T05:23:16.799Z,84.60
2019-03-25T05:25:45.211Z,84.50
2019-03-25T05:28:13.662Z,84.50
2019-03-25T05:30:42.135Z,84.30
2019-03-25T05:33:10.547Z,84.20
2019-03-25T05:35:39.003Z,83.80
2019-03-25T05:38:07.520Z,83.20
2019-03-25T05:40:36.108Z,82.90
2019-03-25T05:43:04.542Z,82.40
2019-03-25T05:45:33.035Z,82.60
2019-03-25T05:48:01.710Z,82.00
2019-03-25T05:50:30.206Z,81.80
2019-03-25T05:52:58.649Z,81.70
2019-03-25T05:55:27.134Z,82.00
2019-03-25T05:57:55.632Z,81.50
2019-03-25T06:00:25.735Z,81.70
2019-03-25T06:02:55.154Z,81.40
2019-03-25T06:05:23.587Z,81.20
2019-03-25T06:07:52.013Z,81.00
2019-03-25T06:10:20.672Z,80.80
2019-03-25T06:12:49.157Z,80.70
2019-03-25T06:15:17.797Z,80.70
2019-03-25T06:17:46.271Z,80.80
2019-03-25T06:20:14.875Z,80.60
2019-03-25T06:22:43.399Z,80.70
2019-03-25T06:25:12.007Z,80.60
2019-03-25T06:27:40.456Z,81.00
2019-03-25T06:30:13.353Z,81.40
2019-03-25T06:32:41.054Z,81.80
2019-03-25T06:35:09.587Z,82.60
2019-03-25T06:37:38.050Z,82.80
2019-03-25T06:40:08.053Z,82.20
2019-03-25T06:42:36.489Z,81.10
2019-03-25T06:45:08.216Z,80.40
2019-03-25T06:47:36.654Z,79.60
2019-03-25T06:50:07.681Z,78.90
2019-03-25T06:52:36.152Z,78.80
2019-03-25T06:55:06.330Z,78.00
2019-03-25T06:57:35.064Z,77.90
2019-03-25T07:00:06.075Z,78.40
2019-03-25T07:02:34.518Z,78.50
2019-03-25T07:05:03.203Z,79.60
2019-03-25T07:07:31.639Z,80.40
2019-03-25T07:10:00.118Z,80.20
2019-03-25T07:12:28.792Z,79.50
2019-03-25T07:14:57.319Z,79.40
2019-03-25T07:17:25.769Z,79.60
2019-03-25T07:19:54.258Z,79.00
2019-03-25T07:22:22.675Z,79.00
2019-03-25T07:24:51.331Z,78.80
2019-03-25T07:27:19.759Z,77.90
2019-03-25T07:29:48.235Z,78.90
2019-03-25T07:32:16.626Z,78.40
2019-03-25T07:34:45.099Z,78.30
2019-03-25T07:37:13.523Z,78.70
2019-03-25T07:39:41.972Z,78.60
2019-03-25T07:42:10.443Z,78.50
2019-03-25T07:44:38.915Z,78.50
2019-03-25T07:47:07.399Z,78.40
2019-03-25T07:49:35.856Z,78.60
2019-03-25T07:52:06.992Z,78.80
2019-03-25T07:54:34.651Z,79.10
2019-03-25T07:57:03.184Z,80.10
2019-03-25T07:59:31.667Z,80.10
2019-03-25T08:02:00.136Z,81.10
2019-03-25T08:04:28.630Z,82.40
2019-03-25T08:06:58.538Z,81.20
2019-03-25T08:09:27.131Z,80.60
2019-03-25T08:11:55.539Z,81.60
2019-03-25T08:14:24.119Z,81.90
2019-03-25T08:16:52.642Z,82.20
2019-03-25T08:19:21.142Z,81.90
2019-03-25T08:21:49.561Z,81.90
2019-03-25T08:24:18.024Z,81.90
2019-03-25T08:26:46.464Z,81.50
2019-03-25T08:29:14.907Z,81.00
2019-03-25T08:31:43.404Z,80.40
2019-03-25T08:34:31.195Z,80.30
2019-03-25T08:36:59.618Z,79.50
2019-03-25T08:39:28.046Z,78.80
2019-03-25T08:41:56.559Z,78.40
2019-03-25T08:44:25.079Z,78.10
2019-03-25T08:46:53.572Z,77.30
2019-03-25T08:49:22.068Z,78.70
2019-03-25T08:51:50.553Z,76.80
2019-03-25T08:54:19.062Z,78.30
2019-03-25T08:56:50.497Z,78.60
2019-03-25T08:59:18.975Z,79.30
2019-03-25T09:02:06.767Z,79.30
2019-03-25T09:04:35.174Z,79.40
2019-03-25T09:07:03.706Z,79.40
2019-03-25T09:09:32.144Z,80.00
2019-03-25T09:12:00.614Z,80.00
2019-03-25T09:14:29.064Z,79.70
2019-03-25T09:17:00.447Z,79.50
2019-03-25T09:19:27.801Z,79.10
2019-03-25T09:21:56.237Z,78.30
2019-03-25T09:24:24.745Z,78.30
2019-03-25T09:26:53.188Z,77.70
2019-03-25T09:29:21.716Z,76.20
2019-03-25T09:31:50.176Z,75.20
2019-03-25T09:34:18.585Z,74.00
2019-03-25T09:36:47.239Z,73.50
2019-03-25T09:39:15.659Z,73.70
2019-03-25T09:41:44.122Z,72.80
2019-03-25T09:44:12.530Z,73.40
2019-03-25T09:46:40.992Z,72.50
2019-03-25T09:49:24.947Z,71.40
2019-03-25T09:51:53.395Z,70.10
2019-03-25T09:54:21.794Z,69.60
2019-03-25T09:56:50.241Z,69.70
2019-03-25T09:59:18.669Z,68.10
2019-03-25T10:01:47.145Z,68.80
2019-03-25T10:04:15.624Z,71.10
2019-03-25T10:06:44.217Z,76.30
2019-03-25T10:09:12.766Z,80.30
2019-03-25T10:11:41.262Z,80.90
2019-03-25T10:14:09.853Z,80.20
2019-03-25T10:16:38.358Z,78.80
2019-03-25T10:19:06.894Z,76.60
2019-03-25T10:21:35.330Z,75.30
2019-03-25T10:24:03.909Z,73.80
2019-03-25T10:26:32.444Z,71.70
2019-03-25T10:29:00.909Z,70.00
2019-03-25T10:31:29.316Z,67.50
2019-03-25T10:33:57.853Z,65.60
2019-03-25T10:36:26.390Z,63.90
2019-03-25T10:38:54.817Z,62.80
2019-03-25T10:41:23.242Z,61.40
2019-03-25T10:43:51.805Z,61.30
2019-03-25T10:46:20.279Z,61.20
2019-03-25T10:48:48.746Z,60.30
2019-03-25T10:51:17.380Z,59.50
2019-03-25T10:53:45.927Z,60.00
2019-03-25T10:56:14.492Z,59.60
2019-03-25T10:58:42.973Z,59.20
2019-03-25T11:01:11.503Z,58.20
2019-03-25T11:03:39.941Z,58.30
2019-03-25T11:06:08.361Z,59.10
2019-03-25T11:08:36.830Z,58.90
2019-03-25T11:11:06.388Z,57.40
2019-03-25T11:13:34.986Z,56.50
2019-03-25T11:16:03.456Z,56.30
2019-03-25T11:18:32.074Z,56.30
2019-03-25T11:21:00.478Z,56.60
2019-03-25T11:23:28.992Z,57.00
2019-03-25T11:25:57.491Z,56.10
2019-03-25T11:28:25.968Z,54.70
2019-03-25T11:30:56.852Z,53.50
2019-03-25T11:33:28.690Z,52.40
2019-03-25T11:35:57.351Z,51.60
2019-03-25T11:38:25.853Z,51.50
2019-03-25T11:40:54.584Z,50.90
2019-03-25T11:43:23.089Z,50.70
2019-03-25T11:45:51.689Z,50.60
2019-03-25T11:48:20.301Z,51.20
2019-03-25T11:50:48.869Z,52.10
2019-03-25T11:53:17.455Z,51.60
2019-03-25T11:55:46.059Z,51.50
2019-03-25T11:58:14.511Z,51.90
2019-03-25T12:00:43.070Z,51.90
2019-03-25T12:03:11.525Z,51.90
2019-03-25T12:05:40.758Z,52.40
2019-03-25T12:08:09.379Z,53.50
2019-03-25T12:10:37.859Z,54.50
2019-03-25T12:13:06.412Z,56.30
2019-03-25T12:15:35.123Z,57.00
2019-03-25T12:18:03.573Z,57.10
2019-03-25T12:20:32.244Z,57.10
2019-03-25T12:23:00.781Z,57.00
2019-03-25T12:25:29.224Z,56.50
2019-03-25T12:27:57.682Z,58.70
2019-03-25T12:30:26.274Z,64.00
2019-03-25T12:33:03.633Z,68.00
2019-03-25T12:35:25.021Z,70.10
2019-03-25T12:37:53.494Z,68.80
2019-03-25T12:40:23.366Z,66.60
2019-03-25T12:42:51.835Z,65.70
2019-03-25T12:45:20.475Z,65.60
2019-03-25T12:47:48.910Z,65.30
2019-03-25T12:50:17.657Z,65.30
2019-03-25T12:52:46.128Z,65.60
2019-03-25T12:55:14.670Z,66.50
2019-03-25T12:57:43.192Z,68.10
2019-03-25T13:00:12.355Z,72.30
2019-03-25T13:02:40.891Z,77.30
2019-03-25T13:05:09.555Z,82.00
2019-03-25T13:07:37.998Z,85.40
2019-03-25T13:10:07.200Z,87.50
2019-03-25T13:12:35.696Z,89.80
2019-03-25T13:15:09.795Z,88.80
2019-03-25T13:17:38.282Z,88.70
2019-03-25T13:20:07.260Z,84.70
2019-03-25T13:22:36.158Z,82.90
2019-03-25T13:25:25.461Z,81.30
2019-03-25T13:27:53.931Z,80.00
2019-03-25T13:30:22.589Z,79.20
2019-03-25T13:32:51.008Z,79.60
2019-03-25T13:35:19.493Z,78.00
2019-03-25T13:37:47.910Z,77.80
2019-03-25T13:40:17.256Z,78.00
2019-03-25T13:42:45.844Z,78.30
2019-03-25T13:45:14.326Z,78.50
2019-03-25T13:47:42.863Z,79.10
2019-03-25T13:50:11.982Z,79.50
2019-03-25T13:52:40.531Z,80.30
2019-03-25T13:55:09.098Z,80.10
2019-03-25T13:57:37.530Z,80.10
2019-03-25T14:00:07.104Z,79.00
2019-03-25T14:02:35.623Z,78.30
2019-03-25T14:05:11.470Z,77.00
2019-03-25T14:07:39.992Z,76.90
2019-03-25T14:10:17.250Z,75.70
2019-03-25T14:12:45.778Z,75.80
2019-03-25T14:15:14.361Z,75.80
2019-03-25T14:17:42.950Z,75.80
2019-03-25T14:20:11.522Z,75.20
2019-03-25T14:22:39.952Z,74.70
2019-03-25T14:25:08.658Z,74.10
2019-03-25T14:27:37.183Z,74.90
2019-03-25T14:30:14.406Z,75.60
2019-03-25T14:32:37.596Z,77.10
2019-03-25T14:35:07.402Z,79.00
2019-03-25T14:37:35.976Z,80.90
2019-03-25T14:40:07.172Z,80.90
2019-03-25T14:42:37.772Z,81.30
2019-03-25T14:45:09.703Z,81.70
2019-03-25T14:47:38.112Z,83.20
2019-03-25T14:50:08.125Z,83.50
2019-03-25T14:52:36.723Z,83.60
2019-03-25T14:55:07.500Z,83.40
2019-03-25T14:57:36.043Z,83.10
2019-03-25T15:00:07.751Z,83.00
2019-03-25T15:02:37.241Z,82.30
2019-03-25T15:05:09.527Z,79.30
2019-03-25T15:07:37.975Z,78.70
2019-03-25T15:10:07.376Z,78.50
2019-03-25T15:12:35.854Z,77.30
2019-03-25T15:15:07.725Z,78.20
2019-03-25T15:17:36.715Z,77.40
2019-03-25T15:20:11.508Z,75.00
2019-03-25T15:22:39.989Z,74.30
2019-03-25T15:25:12.985Z,75.90
2019-03-25T15:27:40.756Z,75.30
2019-03-25T15:30:12.430Z,75.30
2019-03-25T15:32:40.986Z,74.70
2019-03-25T15:35:10.230Z,73.90
2019-03-25T15:37:41.644Z,73.90
2019-03-25T15:40:12.404Z,74.40
2019-03-25T15:42:41.083Z,73.80
2019-03-25T15:45:10.363Z,73.80
2019-03-25T15:47:39.979Z,74.30
2019-03-25T15:50:09.291Z,74.20
2019-03-25T15:52:38.447Z,73.70
2019-03-25T15:55:07.817Z,73.80
2019-03-25T15:57:36.350Z,73.60
2019-03-25T16:00:11.372Z,72.90
2019-03-25T16:02:39.987Z,72.30
2019-03-25T16:05:08.500Z,70.30
2019-03-25T16:07:38.432Z,69.80
2019-03-25T16:10:07.481Z,69.60
2019-03-25T16:12:36.295Z,68.50
2019-03-25T16:15:06.625Z,67.80
2019-03-25T16:17:43.217Z,67.50
2019-03-25T16:20:14.730Z,68.90
2019-03-25T16:22:43.263Z,69.30
2019-03-25T16:25:14.936Z,70.50
2019-03-25T16:27:43.331Z,72.10
2019-03-25T16:30:13.174Z,74.00
2019-03-25T16:32:41.722Z,75.20
2019-03-25T16:35:11.536Z,76.50
2019-03-25T16:37:40.176Z,77.40
2019-03-25T16:40:08.827Z,77.70
2019-03-25T16:42:37.369Z,77.90
2019-03-25T16:45:06.404Z,78.10
2019-03-25T16:47:34.946Z,78.70
2019-03-25T16:50:05.479Z,78.80
2019-03-25T16:52:33.989Z,79.00
2019-03-25T16:55:02.513Z,79.00
2019-03-25T16:57:31.001Z,78.50
2019-03-25T16:59:59.552Z,77.70
2019-03-25T17:02:28.102Z,77.90
2019-03-25T17:04:56.559Z,77.60
2019-03-25T17:07:25.159Z,77.10
2019-03-25T17:09:59.863Z,77.50
2019-03-25T17:12:28.332Z,76.90
2019-03-25T17:14:58.314Z,76.30
2019-03-25T17:17:26.797Z,75.50
2019-03-25T17:19:55.279Z,75.40
2019-03-25T17:22:24.698Z,75.60
2019-03-25T17:24:53.212Z,75.50
2019-03-25T17:27:21.676Z,76.00
2019-03-25T17:29:50.137Z,76.10
2019-03-25T17:32:18.604Z,76.50
2019-03-25T17:34:48.273Z,76.60
2019-03-25T17:37:17.503Z,76.90
2019-03-25T17:39:46.026Z,76.90
2019-03-25T17:42:14.630Z,77.20
2019-03-25T17:44:43.070Z,78.50
2019-03-25T17:47:11.540Z,80.50
2019-03-25T17:49:41.954Z,82.10
2019-03-25T17:52:10.487Z,83.60
2019-03-25T17:54:39.130Z,85.10
2019-03-25T17:57:10.544Z,87.00
2019-03-25T17:59:38.997Z,88.60
2019-03-25T18:02:07.622Z,88.90
2019-03-25T18:04:36.152Z,90.10
2019-03-25T18:07:05.443Z,90.80
2019-03-25T18:09:33.926Z,91.30
2019-03-25T18:12:02.444Z,91.90
2019-03-25T18:14:31.090Z,92.30
2019-03-25T18:16:59.559Z,92.70
2019-03-25T18:19:28.078Z,93.60
2019-03-25T18:21:57.458Z,94.50
2019-03-25T18:24:26.047Z,94.10
2019-03-25T18:26:54.562Z,94.20
2019-03-25T18:29:25.227Z,93.60
2019-03-25T18:31:53.708Z,93.90
2019-03-25T18:34:22.424Z,94.10
2019-03-25T18:36:50.875Z,94.60
2019-03-25T18:39:19.332Z,94.80
2019-03-25T18:41:47.805Z,94.90
2019-03-25T18:44:19.532Z,95.20
2019-03-25T18:46:48.103Z,95.40
2019-03-25T18:49:16.633Z,95.30
2019-03-25T18:51:45.220Z,95.70
2019-03-25T18:54:13.782Z,96.20
2019-03-25T18:56:42.365Z,96.70
2019-03-25T18:59:11.007Z,97.10
2019-03-25T19:01:39.522Z,97.30
2019-03-25T19:04:08.104Z,97.80
2019-03-25T19:06:37.261Z,97.80
2019-03-25T19:09:07.681Z,98.10
2019-03-25T19:11:36.201Z,98.20
2019-03-25T19:14:04.770Z,98.30
2019-03-25T19:16:33.195Z,98.40
2019-03-25T19:19:01.748Z,98.50
2019-03-25T19:21:30.283Z,98.50
2019-03-25T19:24:00.626Z,98.50
2019-03-25T19:26:29.117Z,98.50
2019-03-25T19:28:57.584Z,98.80
2019-03-25T19:31:26.089Z,98.50
2019-03-25T19:33:54.572Z,98.50
2019-03-25T19:36:23.022Z,98.60
2019-03-25T19:38:51.500Z,98.80
2019-03-25T19:41:32.218Z,98.90
2019-03-25T19:43:55.809Z,99.10
2019-03-25T19:46:24.246Z,99.00
2019-03-25T19:48:52.789Z,99.10
2019-03-25T19:51:21.655Z,99.10
2019-03-25T19:53:50.498Z,99.30
2019-03-25T19:56:21.149Z,99.30
2019-03-25T19:58:49.606Z,99.50
2019-03-25T20:01:21.184Z,99.50
2019-03-25T20:03:49.815Z,99.60
2019-03-25T20:06:26.124Z,99.60
2019-03-25T20:08:48.512Z,99.60
2019-03-25T20:11:17.167Z,99.70
2019-03-25T20:13:45.726Z,99.70
2019-03-25T20:16:14.273Z,99.60
2019-03-25T20:18:42.849Z,99.70
2019-03-25T20:21:11.375Z,99.70
2019-03-25T20:23:39.879Z,99.70
2019-03-25T20:26:09.285Z,99.70
2019-03-25T20:28:37.784Z,99.60
2019-03-25T20:31:06.275Z,99.60
2019-03-25T20:33:34.877Z,99.60
2019-03-25T20:36:03.656Z,99.60
2019-03-25T20:38:32.316Z,99.50
2019-03-25T20:41:01.005Z,99.60
2019-03-25T20:43:29.715Z,99.60
2019-03-25T20:45:58.369Z,99.40
2019-03-25T20:48:26.834Z,99.40
2019-03-25T20:50:55.404Z,99.40
2019-03-25T20:53:43.385Z,99.10
2019-03-25T20:56:11.853Z,99.10
2019-03-25T20:58:40.307Z,98.00
2019-03-25T21:01:08.938Z,97.50
2019-03-25T21:03:37.538Z,97.40
2019-03-25T21:06:06.174Z,97.00
2019-03-25T21:08:35.037Z,96.90
2019-03-25T21:11:03.795Z,97.20
2019-03-25T21:13:32.281Z,97.00
2019-03-25T21:16:00.795Z,97.00
2019-03-25T21:18:29.336Z,97.20
2019-03-25T21:20:57.878Z,97.10
2019-03-25T21:23:26.406Z,97.30
2019-03-25T21:25:55.067Z,97.30
2019-03-25T21:28:23.550Z,97.40
2019-03-25T21:30:52.448Z,97.40
2019-03-25T21:33:20.975Z,97.30
2019-03-25T21:35:49.527Z,97.20
2019-03-25T21:38:18.046Z,97.50
2019-03-25T21:40:46.588Z,97.80
2019-03-25T21:43:15.160Z,98.10
2019-03-25T21:45:46.117Z,98.20
2019-03-25T21:48:14.546Z,98.30
2019-03-25T21:50:43.100Z,98.40
2019-03-25T21:53:11.647Z,98.50
2019-03-25T21:55:43.153Z,98.60
2019-03-25T21:58:11.751Z,98.80
2019-03-25T22:00:40.254Z,98.70
2019-03-25T22:03:12.150Z,98.70
2019-03-25T22:05:38.956Z,98.80
2019-03-25T22:08:07.395Z,98.90
2019-03-25T22:10:35.894Z,98.90
2019-03-25T22:13:04.559Z,99.00
2019-03-25T22:15:32.980Z,99.00
2019-03-25T22:18:01.436Z,99.00
2019-03-25T22:20:49.175Z,99.20
2019-03-25T22:23:17.648Z,99.30
2019-03-25T22:25:46.135Z,99.40
2019-03-25T22:28:14.616Z,99.50
2019-03-25T22:30:44.673Z,99.60
2019-03-25T22:33:25.271Z,99.60
2019-03-25T22:35:43.408Z,99.70
2019-03-25T22:38:11.947Z,99.70
2019-03-25T22:40:40.526Z,99.70
2019-03-25T22:43:09.014Z,99.60
2019-03-25T22:45:37.534Z,99.40
2019-03-25T22:48:07.493Z,99.40
2019-03-25T22:50:36.154Z,99.40
2019-03-25T22:53:04.868Z,99.30
2019-03-25T22:55:33.324Z,99.30
2019-03-25T22:58:01.785Z,99.20
2019-03-25T23:00:40.651Z,99.20
2019-03-25T23:03:09.104Z,99.20
2019-03-25T23:05:37.587Z,99.10
2019-03-25T23:08:08.995Z,98.90
2019-03-25T23:10:56.849Z,98.20
2019-03-25T23:13:25.265Z,98.00
2019-03-25T23:15:53.783Z,98.20
2019-03-25T23:18:22.226Z,98.30
2019-03-25T23:20:50.662Z,98.50
2019-03-25T23:23:19.156Z,97.80
2019-03-25T23:25:47.596Z,97.60
2019-03-25T23:28:16.070Z,97.70
2019-03-25T23:30:44.483Z,97.70
2019-03-25T23:33:13.001Z,96.80
2019-03-25T23:35:41.453Z,96.40
2019-03-25T23:38:09.977Z,96.10
2019-03-25T23:40:38.423Z,96.30
2019-03-25T23:43:06.916Z,97.10
2019-03-25T23:45:35.363Z,97.60
2019-03-25T23:48:03.877Z,97.80
2019-03-25T23:50:32.366Z,97.80
2019-03-25T23:53:00.798Z,97.30
2019-03-25T23:55:30.306Z,96.60
2019-03-25T23:57:58.865Z,96.30
